createdAt,value
2023-04-05T00:01:50.964Z,38.70
2023-04-05T00:04:21.460Z,37.67
2023-04-05T00:06:52.995Z,45.10
2023-04-05T00:09:24.105Z,45.80
2023-04-05T00:11:53.643Z,34.70
2023-04-05T00:14:23.076Z,39.13
2023-04-05T00:16:53.244Z,44.20
2023-04-05T00:19:23.563Z,37.80
2023-04-05T00:21:54.860Z,31.77
2023-04-05T00:24:25.608Z,30.77
2023-04-05T00:26:54.988Z,33.00
2023-04-05T00:29:24.305Z,41.10
2023-04-05T00:31:53.647Z,31.93
2023-04-05T00:34:22.521Z,27.20
2023-04-05T00:36:51.789Z,30.90
2023-04-05T00:39:21.276Z,29.67
2023-04-05T00:41:53.660Z,22.27
2023-04-05T00:44:22.956Z,27.17
2023-04-05T00:46:52.305Z,32.87
2023-04-05T00:49:21.459Z,33.27
2023-04-05T00:51:50.450Z,27.90
2023-04-05T00:54:20.988Z,26.37
2023-04-05T00:56:53.367Z,23.87
2023-04-05T00:59:24.123Z,22.13
2023-04-05T01:02:02.646Z,26.13
2023-04-05T01:04:34.770Z,28.07
2023-04-05T01:07:11.259Z,25.97
2023-04-05T01:09:48.556Z,23.27
2023-04-05T01:12:22.898Z,25.50
2023-04-05T01:14:53.887Z,23.23
2023-04-05T01:17:24.813Z,21.63
2023-04-05T01:19:59.434Z,24.70
2023-04-05T01:22:56.300Z,25.73
2023-04-05T01:25:42.911Z,21.07
2023-04-05T01:28:49.884Z,25.17
2023-04-05T01:31:28.318Z,27.97
2023-04-05T01:34:04.541Z,26.70
2023-04-05T01:36:41.476Z,26.07
2023-04-05T01:39:13.589Z,28.53
2023-04-05T01:41:45.719Z,25.17
2023-04-05T01:44:16.996Z,32.37
2023-04-05T01:46:47.703Z,32.77
2023-04-05T01:49:16.831Z,26.00
2023-04-05T01:51:45.833Z,32.87
2023-04-05T01:54:15.372Z,27.50
2023-04-05T01:56:45.377Z,23.50
2023-04-05T01:59:14.415Z,27.03
2023-04-05T02:01:43.496Z,35.07
2023-04-05T02:04:14.150Z,23.20
2023-04-05T02:06:43.046Z,24.50
2023-04-05T02:09:12.387Z,27.53
2023-04-05T02:11:42.982Z,31.90
2023-04-05T02:14:14.021Z,31.70
2023-04-05T02:16:45.400Z,27.77
2023-04-05T02:19:23.296Z,28.80
2023-04-05T02:21:54.056Z,33.27
2023-04-05T02:24:23.621Z,33.80
2023-04-05T02:26:52.873Z,29.70
2023-04-05T02:29:21.779Z,26.80
2023-04-05T02:31:51.687Z,27.87
2023-04-05T02:34:23.168Z,29.03
2023-04-05T02:36:53.021Z,25.77
2023-04-05T02:39:22.024Z,24.87
2023-04-05T02:41:51.298Z,23.53
2023-04-05T02:44:20.373Z,26.27
2023-04-05T02:46:49.565Z,24.63
2023-04-05T02:49:19.744Z,21.60
2023-04-05T02:51:51.675Z,19.20
2023-04-05T02:54:21.657Z,23.13
2023-04-05T02:56:55.069Z,27.40
2023-04-05T02:59:25.389Z,24.57
2023-04-05T03:01:54.541Z,20.17
2023-04-05T03:04:28.201Z,29.07
2023-04-05T03:07:05.951Z,23.13
2023-04-05T03:09:40.137Z,29.57
2023-04-05T03:12:11.940Z,23.10
2023-04-05T03:14:43.991Z,26.57
2023-04-05T03:17:16.252Z,22.73
2023-04-05T03:19:52.005Z,31.10
2023-04-05T03:22:28.247Z,25.13
2023-04-05T03:24:59.361Z,25.67
2023-04-05T03:27:29.435Z,27.83
2023-04-05T03:30:18.835Z,33.40
2023-04-05T03:32:55.616Z,32.87
2023-04-05T03:35:36.499Z,24.47
2023-04-05T03:38:10.585Z,24.37
2023-04-05T03:40:45.658Z,24.00
2023-04-05T03:43:14.948Z,24.47
2023-04-05T03:45:44.036Z,24.67
2023-04-05T03:48:13.608Z,30.47
2023-04-05T03:50:44.272Z,31.20
2023-04-05T03:53:19.400Z,27.37
2023-04-05T03:55:54.533Z,26.97
2023-04-05T03:58:37.624Z,26.50
2023-04-05T04:01:07.165Z,29.03
2023-04-05T04:03:37.772Z,29.07
2023-04-05T04:06:08.307Z,26.80
2023-04-05T04:08:38.758Z,31.10
2023-04-05T04:11:08.951Z,41.47
2023-04-05T04:13:41.714Z,23.60
2023-04-05T04:16:27.469Z,35.00
2023-04-05T04:19:20.336Z,32.63
2023-04-05T04:22:04.664Z,25.57
2023-04-05T04:24:55.187Z,36.23
2023-04-05T04:27:45.318Z,29.77
2023-04-05T04:30:38.811Z,33.87
2023-04-05T04:33:20.354Z,30.10
2023-04-05T04:36:13.945Z,29.30
2023-04-05T04:39:02.961Z,22.60
2023-04-05T04:41:56.224Z,25.40
2023-04-05T04:44:44.666Z,24.17
2023-04-05T04:47:18.227Z,31.17
2023-04-05T04:50:01.737Z,35.87
2023-04-05T04:52:31.823Z,25.73
2023-04-05T04:55:03.025Z,28.73
2023-04-05T04:57:33.929Z,38.10
2023-04-05T05:00:08.229Z,30.27
2023-04-05T05:02:39.226Z,29.10
2023-04-05T05:05:09.529Z,45.67
2023-04-05T05:07:40.553Z,24.53
2023-04-05T05:10:11.119Z,27.23
2023-04-05T05:12:41.469Z,28.97
2023-04-05T05:15:13.916Z,34.53
2023-04-05T05:17:43.236Z,61.80
2023-04-05T05:20:13.644Z,35.33
2023-04-05T05:22:47.716Z,27.23
2023-04-05T05:25:17.454Z,36.47
2023-04-05T05:27:51.183Z,34.03
2023-04-05T05:30:21.372Z,35.00
2023-04-05T05:32:50.747Z,27.40
2023-04-05T05:35:20.035Z,24.17
2023-04-05T05:37:51.118Z,34.43
2023-04-05T05:40:20.552Z,28.47
2023-04-05T05:42:51.993Z,28.60
2023-04-05T05:45:23.152Z,25.73
2023-04-05T05:47:52.482Z,33.13
2023-04-05T05:50:22.874Z,27.23
2023-04-05T05:52:54.832Z,33.23
2023-04-05T05:55:24.212Z,27.40
2023-04-05T05:57:57.292Z,18.07
2023-04-05T06:00:27.744Z,32.20
2023-04-05T06:02:59.631Z,33.47
2023-04-05T06:05:29.496Z,29.97
2023-04-05T06:07:58.976Z,24.90
2023-04-05T06:10:28.540Z,25.60
2023-04-05T06:12:59.087Z,23.27
2023-04-05T06:15:28.461Z,23.73
2023-04-05T06:17:59.849Z,25.00
2023-04-05T06:20:29.323Z,29.37
2023-04-05T06:23:00.143Z,27.80
2023-04-05T06:25:29.044Z,27.47
2023-04-05T06:27:59.707Z,36.40
2023-04-05T06:30:29.331Z,32.50
2023-04-05T06:32:58.865Z,36.90
2023-04-05T06:35:28.565Z,40.87
2023-04-05T06:37:57.892Z,29.27
2023-04-05T06:40:26.912Z,29.13
2023-04-05T06:42:57.347Z,38.23
2023-04-05T06:45:33.804Z,45.13
2023-04-05T06:48:07.070Z,30.07
2023-04-05T06:50:38.630Z,29.03
2023-04-05T06:53:08.334Z,31.93
2023-04-05T06:55:37.904Z,33.20
2023-04-05T06:58:07.161Z,30.90
2023-04-05T07:00:37.754Z,26.67
2023-04-05T07:03:07.114Z,34.20
2023-04-05T07:05:36.607Z,40.17
2023-04-05T07:08:06.144Z,38.77
2023-04-05T07:10:35.119Z,38.43
2023-04-05T07:13:04.565Z,28.73
2023-04-05T07:15:34.117Z,27.03
2023-04-05T07:18:07.559Z,30.03
2023-04-05T07:20:37.831Z,29.87
2023-04-05T07:23:08.059Z,23.83
2023-04-05T07:25:37.612Z,31.93
2023-04-05T07:28:06.345Z,26.13
2023-04-05T07:30:37.798Z,31.77
2023-04-05T07:33:09.290Z,26.27
2023-04-05T07:35:38.622Z,27.13
2023-04-05T07:38:10.513Z,25.70
2023-04-05T07:40:39.903Z,25.37
2023-04-05T07:43:09.055Z,30.47
2023-04-05T07:45:40.721Z,24.67
2023-04-05T07:48:11.919Z,26.03
2023-04-05T07:50:43.072Z,22.63
2023-04-05T07:53:15.222Z,24.73
2023-04-05T07:55:44.779Z,24.13
2023-04-05T07:58:14.632Z,24.40
2023-04-05T08:00:44.213Z,17.67
2023-04-05T08:03:14.994Z,15.50
2023-04-05T08:05:44.145Z,12.63
2023-04-05T08:08:14.745Z,15.60
2023-04-05T08:10:46.686Z,19.53
2023-04-05T08:13:16.571Z,14.90
2023-04-05T08:15:46.016Z,21.67
2023-04-05T08:18:17.071Z,14.67
2023-04-05T08:20:46.246Z,31.67
2023-04-05T08:23:15.257Z,14.70
2023-04-05T08:25:47.166Z,10.50
2023-04-05T08:28:16.570Z,7.30
2023-04-05T08:30:45.585Z,10.67
2023-04-05T08:33:16.482Z,9.40
2023-04-05T08:35:45.376Z,7.47
2023-04-05T08:38:14.219Z,9.67
2023-04-05T08:40:46.849Z,16.00
2023-04-05T08:43:22.010Z,12.23
2023-04-05T08:45:52.882Z,17.17
2023-04-05T08:48:23.634Z,12.30
2023-04-05T08:50:54.228Z,15.33
2023-04-05T08:53:23.929Z,9.67
2023-04-05T08:55:57.006Z,16.23
2023-04-05T08:58:27.952Z,18.97
2023-04-05T09:00:59.541Z,13.57
2023-04-05T09:03:37.662Z,13.27
2023-04-05T09:06:12.636Z,12.40
2023-04-05T09:08:43.156Z,13.07
2023-04-05T09:11:16.660Z,11.83
2023-04-05T09:13:46.204Z,9.33
2023-04-05T09:16:18.020Z,12.53
2023-04-05T09:18:51.028Z,10.07
2023-04-05T09:21:21.227Z,13.30
2023-04-05T09:23:56.502Z,11.03
2023-04-05T09:26:27.616Z,12.63
2023-04-05T09:29:01.188Z,11.53
2023-04-05T09:31:35.550Z,12.20
2023-04-05T09:34:12.431Z,8.17
2023-04-05T09:36:46.607Z,8.93
2023-04-05T09:39:16.843Z,8.50
2023-04-05T09:42:07.106Z,6.77
2023-04-05T09:45:05.527Z,9.37
2023-04-05T09:47:42.521Z,8.60
2023-04-05T09:50:22.640Z,9.33
2023-04-05T09:52:53.451Z,7.93
2023-04-05T09:55:30.543Z,12.90
2023-04-05T09:57:59.417Z,12.50
2023-04-05T10:00:28.415Z,9.50
2023-04-05T10:02:58.561Z,7.80
2023-04-05T10:05:30.269Z,6.53
2023-04-05T10:08:00.099Z,5.67
2023-04-05T10:10:29.691Z,5.77
2023-04-05T10:12:59.550Z,4.13
2023-04-05T10:15:29.140Z,12.73
2023-04-05T10:18:05.633Z,6.70
2023-04-05T10:20:42.107Z,4.63
2023-04-05T10:23:14.971Z,7.33
2023-04-05T10:25:57.221Z,10.97
2023-04-05T10:28:33.213Z,4.27
2023-04-05T10:31:11.913Z,6.87
2023-04-05T10:33:45.972Z,6.53
2023-04-05T10:36:29.131Z,7.30
2023-04-05T10:39:07.105Z,7.23
2023-04-05T10:41:44.862Z,5.10
2023-04-05T10:44:25.064Z,12.03
2023-04-05T10:46:56.977Z,6.27
2023-04-05T10:49:35.361Z,10.07
2023-04-05T10:52:08.321Z,15.13
2023-04-05T10:54:39.395Z,9.60
2023-04-05T10:57:11.211Z,10.17
2023-04-05T10:59:46.139Z,9.67
2023-04-05T11:02:16.846Z,11.10
2023-04-05T11:04:45.903Z,9.90
2023-04-05T11:07:18.497Z,6.87
2023-04-05T11:09:57.127Z,13.97
2023-04-05T11:13:07.378Z,11.90
2023-04-05T11:15:37.471Z,10.60
2023-04-05T11:18:12.044Z,12.33
2023-04-05T11:20:49.580Z,12.07
2023-04-05T11:23:22.112Z,9.10
2023-04-05T11:25:54.888Z,9.37
2023-04-05T11:28:30.965Z,10.80
2023-04-05T11:31:13.269Z,7.57
2023-04-05T11:34:00.009Z,10.83
2023-04-05T11:36:34.676Z,10.50
2023-04-05T11:39:26.924Z,9.83
2023-04-05T11:42:06.683Z,9.13
2023-04-05T11:44:45.461Z,7.60
2023-04-05T11:47:16.182Z,14.33
2023-04-05T11:49:47.739Z,7.83
2023-04-05T11:52:18.288Z,11.93
2023-04-05T11:54:49.949Z,13.37
2023-04-05T11:57:23.222Z,11.67
2023-04-05T11:59:53.795Z,9.00
2023-04-05T12:02:23.782Z,10.77
2023-04-05T12:04:58.250Z,11.67
2023-04-05T12:07:30.542Z,10.30
2023-04-05T12:10:07.703Z,8.17
2023-04-05T12:12:39.001Z,10.20
2023-04-05T12:15:11.291Z,14.73
2023-04-05T12:17:44.954Z,12.63
2023-04-05T12:20:16.348Z,7.13
2023-04-05T12:22:50.137Z,9.80
2023-04-05T12:25:21.774Z,10.53
2023-04-05T12:27:51.061Z,10.23
2023-04-05T12:30:21.721Z,12.13
2023-04-05T12:32:54.215Z,10.63
2023-04-05T12:35:27.468Z,11.90
2023-04-05T12:38:00.181Z,11.60
2023-04-05T12:40:33.167Z,10.37
2023-04-05T12:43:07.722Z,9.97
2023-04-05T12:45:42.679Z,11.60
2023-04-05T12:48:14.185Z,12.07
2023-04-05T12:50:48.711Z,10.33
2023-04-05T12:53:20.904Z,10.47
2023-04-05T12:55:55.648Z,14.90
2023-04-05T12:58:34.196Z,11.07
2023-04-05T13:01:03.362Z,12.00
2023-04-05T13:03:32.546Z,10.80
2023-04-05T13:06:01.754Z,10.87
2023-04-05T13:08:30.992Z,18.87
2023-04-05T13:11:02.392Z,19.40
2023-04-05T13:13:31.661Z,16.20
2023-04-05T13:16:01.112Z,8.63
2023-04-05T13:18:30.773Z,14.43
2023-04-05T13:21:03.828Z,10.97
2023-04-05T13:23:32.908Z,7.07
2023-04-05T13:26:03.613Z,12.30
2023-04-05T13:28:33.061Z,8.13
2023-04-05T13:31:02.228Z,9.50
2023-04-05T13:33:31.486Z,11.73
2023-04-05T13:36:00.879Z,12.73
2023-04-05T13:38:31.620Z,11.67
2023-04-05T13:41:01.064Z,11.80
2023-04-05T13:43:32.617Z,9.60
2023-04-05T13:46:01.604Z,8.97
2023-04-05T13:48:30.718Z,9.93
2023-04-05T13:51:00.113Z,10.23
2023-04-05T13:53:29.172Z,7.13
2023-04-05T13:55:58.145Z,11.23
2023-04-05T13:58:27.144Z,8.93
2023-04-05T14:00:57.889Z,11.30
2023-04-05T14:03:27.761Z,11.57
2023-04-05T14:05:57.386Z,8.87
2023-04-05T14:08:26.843Z,7.00
2023-04-05T14:10:56.053Z,10.50
2023-04-05T14:13:25.467Z,8.67
2023-04-05T14:15:54.408Z,10.00
2023-04-05T14:18:26.505Z,11.17
2023-04-05T14:20:56.654Z,16.23
2023-04-05T14:23:27.406Z,8.13
2023-04-05T14:25:56.643Z,7.90
2023-04-05T14:28:25.842Z,8.73
2023-04-05T14:30:54.950Z,9.60
2023-04-05T14:33:26.958Z,8.10
2023-04-05T14:35:56.770Z,7.80
2023-04-05T14:38:26.314Z,7.23
2023-04-05T14:40:55.954Z,5.30
2023-04-05T14:43:26.084Z,8.37
2023-04-05T14:45:55.778Z,7.50
2023-04-05T14:48:26.156Z,8.57
2023-04-05T14:50:55.299Z,6.67
2023-04-05T14:53:24.370Z,5.23
2023-04-05T14:55:53.361Z,6.67
2023-04-05T14:58:23.621Z,9.43
2023-04-05T15:00:53.474Z,8.10
2023-04-05T15:03:23.135Z,8.43
2023-04-05T15:05:54.394Z,11.47
2023-04-05T15:08:30.264Z,5.63
2023-04-05T15:11:04.242Z,6.50
2023-04-05T15:13:35.737Z,6.70
2023-04-05T15:16:05.122Z,5.03
2023-04-05T15:18:34.330Z,7.13
2023-04-05T15:21:05.217Z,4.63
2023-04-05T15:23:36.621Z,6.13
2023-04-05T15:26:07.654Z,4.73
2023-04-05T15:28:36.769Z,6.17
2023-04-05T15:31:06.353Z,8.17
2023-04-05T15:33:35.405Z,5.43
2023-04-05T15:36:06.980Z,5.33
2023-04-05T15:38:36.126Z,6.07
2023-04-05T15:41:05.486Z,5.20
2023-04-05T15:43:34.883Z,5.23
2023-04-05T15:46:05.266Z,8.20
2023-04-05T15:48:34.913Z,8.83
2023-04-05T15:51:05.879Z,8.77
2023-04-05T15:53:35.631Z,6.00
2023-04-05T15:56:04.941Z,7.47
2023-04-05T15:58:34.127Z,5.20
2023-04-05T16:01:03.261Z,5.57
2023-04-05T16:03:34.031Z,7.00
2023-04-05T16:06:05.120Z,5.30
2023-04-05T16:08:34.443Z,7.07
2023-04-05T16:11:03.732Z,8.77
2023-04-05T16:13:32.953Z,6.03
2023-04-05T16:16:02.032Z,7.93
2023-04-05T16:18:32.529Z,7.80
2023-04-05T16:21:03.278Z,10.97
2023-04-05T16:23:34.530Z,7.10
2023-04-05T16:26:04.503Z,4.47
2023-04-05T16:28:33.636Z,6.80
2023-04-05T16:31:03.924Z,5.43
2023-04-05T16:33:33.479Z,8.20
2023-04-05T16:36:03.801Z,4.90
2023-04-05T16:38:34.594Z,9.97
2023-04-05T16:41:04.248Z,7.47
2023-04-05T16:43:33.198Z,7.07
2023-04-05T16:46:02.379Z,13.97
2023-04-05T16:48:33.330Z,20.13
2023-04-05T16:51:03.697Z,15.20
2023-04-05T16:53:35.394Z,13.07
2023-04-05T16:56:04.735Z,25.50
2023-04-05T16:58:33.652Z,33.47
2023-04-05T17:01:03.385Z,36.37
2023-04-05T17:03:32.827Z,34.23
2023-04-05T17:06:03.824Z,29.20
2023-04-05T17:08:34.611Z,43.70
2023-04-05T17:11:03.991Z,38.07
2023-04-05T17:13:33.381Z,32.57
2023-04-05T17:16:02.571Z,27.73
2023-04-05T17:18:31.964Z,28.80
2023-04-05T17:21:01.244Z,37.70
2023-04-05T17:23:30.224Z,42.67
2023-04-05T17:26:00.922Z,58.73
2023-04-05T17:28:31.489Z,67.17
2023-04-05T17:31:01.099Z,49.67
2023-04-05T17:33:30.234Z,49.37
2023-04-05T17:36:00.380Z,28.77
2023-04-05T17:38:29.678Z,26.97
2023-04-05T17:41:00.342Z,32.63
2023-04-05T17:43:29.502Z,27.50
2023-04-05T17:45:58.599Z,24.57
2023-04-05T17:48:29.802Z,24.77
2023-04-05T17:50:59.011Z,21.33
2023-04-05T17:53:28.035Z,22.13
2023-04-05T17:55:58.228Z,21.87
2023-04-05T17:58:30.661Z,21.83
2023-04-05T18:01:00.876Z,29.33
2023-04-05T18:03:30.511Z,31.93
2023-04-05T18:05:59.738Z,32.93
2023-04-05T18:08:29.325Z,27.80
2023-04-05T18:10:58.986Z,36.43
2023-04-05T18:13:30.675Z,47.37
2023-04-05T18:16:00.697Z,45.20
2023-04-05T18:18:30.224Z,36.67
2023-04-05T18:21:03.285Z,30.40
2023-04-05T18:23:32.553Z,31.60
2023-04-05T18:26:07.751Z,36.63
2023-04-05T18:28:38.233Z,31.60
2023-04-05T18:31:10.849Z,36.40
2023-04-05T18:33:41.490Z,39.87
2023-04-05T18:36:11.227Z,35.33
2023-04-05T18:38:40.342Z,41.10
2023-04-05T18:41:10.236Z,43.90
2023-04-05T18:43:41.602Z,47.80
2023-04-05T18:46:18.772Z,49.90
2023-04-05T18:48:54.624Z,48.23
2023-04-05T18:51:25.001Z,43.50
2023-04-05T18:53:54.687Z,48.27
2023-04-05T18:56:23.860Z,46.23
2023-04-05T18:58:55.046Z,39.73
2023-04-05T19:01:25.056Z,37.17
2023-04-05T19:03:56.159Z,40.00
2023-04-05T19:06:25.698Z,40.70
2023-04-05T19:08:54.937Z,44.33
2023-04-05T19:11:24.066Z,56.10
2023-04-05T19:13:56.500Z,58.93
2023-04-05T19:16:25.697Z,61.50
2023-04-05T19:18:54.520Z,52.67
2023-04-05T19:21:24.937Z,45.47
2023-04-05T19:23:54.248Z,42.53
2023-04-05T19:26:23.390Z,42.00
2023-04-05T19:28:54.668Z,54.67
2023-04-05T19:31:24.598Z,62.60
2023-04-05T19:33:54.180Z,56.43
2023-04-05T19:36:23.515Z,48.47
2023-04-05T19:38:53.410Z,42.67
2023-04-05T19:41:22.857Z,44.80
2023-04-05T19:43:54.316Z,41.00
2023-04-05T19:46:24.136Z,40.53
2023-04-05T19:48:54.694Z,52.20
2023-04-05T19:51:29.550Z,53.57
2023-04-05T19:54:00.480Z,52.33
2023-04-05T19:56:32.928Z,55.30
2023-04-05T19:59:05.787Z,60.70
2023-04-05T20:01:37.036Z,56.53
2023-04-05T20:04:13.792Z,59.73
2023-04-05T20:06:48.310Z,71.80
2023-04-05T20:09:19.254Z,73.27
2023-04-05T20:11:54.092Z,82.47
2023-04-05T20:14:31.058Z,70.60
2023-04-05T20:17:00.505Z,77.53
2023-04-05T20:19:30.930Z,66.43
2023-04-05T20:22:01.882Z,84.63
2023-04-05T20:24:31.125Z,82.43
2023-04-05T20:27:00.521Z,81.87
2023-04-05T20:29:33.386Z,73.57
2023-04-05T20:32:03.714Z,73.40
2023-04-05T20:34:34.596Z,81.70
2023-04-05T20:37:11.930Z,66.77
2023-04-05T20:39:41.507Z,40.50
2023-04-05T20:42:12.084Z,53.37
2023-04-05T20:44:44.228Z,63.33
2023-04-05T20:47:15.619Z,70.17
2023-04-05T20:49:47.893Z,62.90
2023-04-05T20:52:17.777Z,64.23
2023-04-05T20:54:47.508Z,61.97
2023-04-05T20:57:16.804Z,56.17
2023-04-05T20:59:47.625Z,51.47
2023-04-05T21:02:16.738Z,61.87
2023-04-05T21:04:46.986Z,58.23
2023-04-05T21:07:18.222Z,68.33
2023-04-05T21:09:47.362Z,80.47
2023-04-05T21:12:16.265Z,88.20
2023-04-05T21:14:47.379Z,76.43
2023-04-05T21:17:16.668Z,69.87
2023-04-05T21:19:45.736Z,67.97
2023-04-05T21:22:15.103Z,77.83
2023-04-05T21:24:44.288Z,75.67
2023-04-05T21:27:13.523Z,70.30
2023-04-05T21:29:42.873Z,71.03
2023-04-05T21:32:13.756Z,72.07
2023-04-05T21:34:43.208Z,78.37
2023-04-05T21:37:12.903Z,73.43
2023-04-05T21:39:41.866Z,70.40
2023-04-05T21:42:11.467Z,74.47
2023-04-05T21:44:42.242Z,77.47
2023-04-05T21:47:13.164Z,70.13
2023-04-05T21:49:42.431Z,71.43
2023-04-05T21:52:11.520Z,64.33
2023-04-05T21:54:40.279Z,69.30
2023-04-05T21:57:09.167Z,64.73
2023-04-05T21:59:38.731Z,74.20
2023-04-05T22:02:08.776Z,67.30
2023-04-05T22:04:39.881Z,62.07
2023-04-05T22:07:09.826Z,66.37
2023-04-05T22:09:39.449Z,71.97
2023-04-05T22:12:08.607Z,67.07
2023-04-05T22:14:37.656Z,69.90
2023-04-05T22:17:06.732Z,64.83
2023-04-05T22:19:36.785Z,70.53
2023-04-05T22:22:07.489Z,72.03
2023-04-05T22:24:36.751Z,68.60
2023-04-05T22:27:06.042Z,69.33
2023-04-05T22:29:35.204Z,69.50
2023-04-05T22:32:04.362Z,66.57
2023-04-05T22:34:33.320Z,73.60
2023-04-05T22:37:02.494Z,62.40
2023-04-05T22:39:33.665Z,58.40
2023-04-05T22:42:02.778Z,57.10
2023-04-05T22:44:31.725Z,66.47
2023-04-05T22:47:00.949Z,64.83
2023-04-05T22:49:29.868Z,62.03
2023-04-05T22:51:59.513Z,64.57
2023-04-05T22:54:28.830Z,63.73
2023-04-05T22:57:00.257Z,68.00
2023-04-05T22:59:29.587Z,64.27
2023-04-05T23:01:59.533Z,63.83
2023-04-05T23:04:28.644Z,58.97
2023-04-05T23:06:58.129Z,58.07
2023-04-05T23:09:27.366Z,57.90
2023-04-05T23:11:56.639Z,62.23
2023-04-05T23:14:27.553Z,66.17
2023-04-05T23:16:56.799Z,63.67
2023-04-05T23:19:26.025Z,64.60
2023-04-05T23:21:55.875Z,67.77
2023-04-05T23:24:24.653Z,64.37
2023-04-05T23:26:53.764Z,74.33
2023-04-05T23:29:23.100Z,64.33
2023-04-05T23:31:54.295Z,78.33
2023-04-05T23:34:23.608Z,76.63
2023-04-05T23:36:52.889Z,68.63
2023-04-05T23:39:22.248Z,64.00
2023-04-05T23:41:52.380Z,71.60
2023-04-05T23:44:21.160Z,65.40
2023-04-05T23:46:50.383Z,70.57
2023-04-05T23:49:21.466Z,80.77
2023-04-05T23:51:50.834Z,81.03
2023-04-05T23:54:19.742Z,84.87
2023-04-05T23:56:48.739Z,83.43
2023-04-05T23:59:17.620Z,79.30
